sensor_id;sensor_type;location;lat;lon;timestamp;temperature;humidity
21031;DHT22;61072;47.808;7.636;2023-04-03T00:00:32;7.10;99.90
21031;DHT22;61072;47.808;7.636;2023-04-03T00:02:59;7.00;99.90
21031;DHT22;61072;47.808;7.636;2023-04-03T00:05:25;7.00;99.90
21031;DHT22;61072;47.808;7.636;2023-04-03T00:07:52;7.00;99.90
21031;DHT22;61072;47.808;7.636;2023-04-03T00:10:19;7.00;99.90
21031;DHT22;61072;47.808;7.636;2023-04-03T00:12:46;7.00;99.90
21031;DHT22;61072;47.808;7.636;2023-04-03T00:15:12;7.00;99.90
21031;DHT22;61072;47.808;7.636;2023-04-03T00:17:39;6.90;99.90
21031;DHT22;61072;47.808;7.636;2023-04-03T00:20:06;6.90;99.90
21031;DHT22;61072;47.808;7.636;2023-04-03T00:22:33;6.90;99.90
21031;DHT22;61072;47.808;7.636;2023-04-03T00:25:00;7.00;99.90
21031;DHT22;61072;47.808;7.636;2023-04-03T00:27:26;6.90;99.90
21031;DHT22;61072;47.808;7.636;2023-04-03T00:29:53;6.90;99.90
21031;DHT22;61072;47.808;7.636;2023-04-03T00:32:20;6.90;99.90
21031;DHT22;61072;47.808;7.636;2023-04-03T00:34:46;6.90;99.90
21031;DHT22;61072;47.808;7.636;2023-04-03T00:37:13;6.90;99.90
21031;DHT22;61072;47.808;7.636;2023-04-03T00:39:40;6.90;99.90
21031;DHT22;61072;47.808;7.636;2023-04-03T00:42:07;7.00;99.90
21031;DHT22;61072;47.808;7.636;2023-04-03T00:47:00;7.10;99.90
21031;DHT22;61072;47.808;7.636;2023-04-03T00:49:28;7.00;99.90
21031;DHT22;61072;47.808;7.636;2023-04-03T00:51:55;7.00;99.90
21031;DHT22;61072;47.808;7.636;2023-04-03T00:54:23;7.00;99.90
21031;DHT22;61072;47.808;7.636;2023-04-03T00:56:51;6.80;99.90
21031;DHT22;61072;47.808;7.636;2023-04-03T00:59:26;6.80;99.90
21031;DHT22;61072;47.808;7.636;2023-04-03T01:01:54;6.70;99.90
21031;DHT22;61072;47.808;7.636;2023-04-03T01:07:01;6.60;99.90
21031;DHT22;61072;47.808;7.636;2023-04-03T01:09:28;6.60;99.90
21031;DHT22;61072;47.808;7.636;2023-04-03T01:12:13;6.60;99.90
21031;DHT22;61072;47.808;7.636;2023-04-03T01:14:43;6.60;99.90
21031;DHT22;61072;47.808;7.636;2023-04-03T01:25:19;6.50;99.90
21031;DHT22;61072;47.808;7.636;2023-04-03T01:27:45;6.50;99.90
21031;DHT22;61072;47.808;7.636;2023-04-03T01:30:13;6.50;99.90
21031;DHT22;61072;47.808;7.636;2023-04-03T01:32:43;6.60;99.90
21031;DHT22;61072;47.808;7.636;2023-04-03T01:35:10;6.60;99.90
21031;DHT22;61072;47.808;7.636;2023-04-03T01:37:37;6.50;99.90
21031;DHT22;61072;47.808;7.636;2023-04-03T01:40:04;6.50;99.90
21031;DHT22;61072;47.808;7.636;2023-04-03T01:42:32;6.50;99.90
21031;DHT22;61072;47.808;7.636;2023-04-03T01:44:58;6.50;99.90
21031;DHT22;61072;47.808;7.636;2023-04-03T01:47:25;6.40;99.90
21031;DHT22;61072;47.808;7.636;2023-04-03T01:49:52;6.40;99.90
21031;DHT22;61072;47.808;7.636;2023-04-03T01:52:18;6.40;99.90
21031;DHT22;61072;47.808;7.636;2023-04-03T01:54:45;6.40;99.90
21031;DHT22;61072;47.808;7.636;2023-04-03T01:57:11;6.40;99.90
21031;DHT22;61072;47.808;7.636;2023-04-03T01:59:40;6.40;99.90
21031;DHT22;61072;47.808;7.636;2023-04-03T02:02:06;6.30;99.90
21031;DHT22;61072;47.808;7.636;2023-04-03T02:04:33;6.30;99.90
21031;DHT22;61072;47.808;7.636;2023-04-03T02:07:00;6.20;99.90
21031;DHT22;61072;47.808;7.636;2023-04-03T02:09:27;6.20;99.90
21031;DHT22;61072;47.808;7.636;2023-04-03T02:11:53;6.10;99.90
21031;DHT22;61072;47.808;7.636;2023-04-03T02:14:20;6.10;99.90
21031;DHT22;61072;47.808;7.636;2023-04-03T02:16:48;6.10;99.90
21031;DHT22;61072;47.808;7.636;2023-04-03T02:19:15;6.10;99.90
21031;DHT22;61072;47.808;7.636;2023-04-03T02:21:41;6.10;99.90
21031;DHT22;61072;47.808;7.636;2023-04-03T02:24:08;6.00;99.90
21031;DHT22;61072;47.808;7.636;2023-04-03T02:26:35;6.00;99.90
21031;DHT22;61072;47.808;7.636;2023-04-03T02:29:01;5.90;99.90
21031;DHT22;61072;47.808;7.636;2023-04-03T02:31:29;5.90;99.90
21031;DHT22;61072;47.808;7.636;2023-04-03T02:33:56;5.90;99.90
21031;DHT22;61072;47.808;7.636;2023-04-03T02:36:22;5.90;99.90
21031;DHT22;61072;47.808;7.636;2023-04-03T02:38:49;5.90;99.90
21031;DHT22;61072;47.808;7.636;2023-04-03T02:41:16;5.90;99.90
21031;DHT22;61072;47.808;7.636;2023-04-03T02:43:43;6.00;99.90
21031;DHT22;61072;47.808;7.636;2023-04-03T02:46:09;5.90;99.90
21031;DHT22;61072;47.808;7.636;2023-04-03T02:48:36;6.00;99.90
21031;DHT22;61072;47.808;7.636;2023-04-03T02:51:03;6.00;99.90
21031;DHT22;61072;47.808;7.636;2023-04-03T02:53:30;6.00;99.90
21031;DHT22;61072;47.808;7.636;2023-04-03T02:55:56;6.10;99.90
21031;DHT22;61072;47.808;7.636;2023-04-03T02:58:23;6.20;99.90
21031;DHT22;61072;47.808;7.636;2023-04-03T03:00:50;6.10;99.90
21031;DHT22;61072;47.808;7.636;2023-04-03T03:03:16;5.90;99.90
21031;DHT22;61072;47.808;7.636;2023-04-03T03:05:43;5.90;99.90
21031;DHT22;61072;47.808;7.636;2023-04-03T03:08:10;5.90;99.90
21031;DHT22;61072;47.808;7.636;2023-04-03T03:10:36;5.90;99.90
21031;DHT22;61072;47.808;7.636;2023-04-03T03:13:04;6.00;99.90
21031;DHT22;61072;47.808;7.636;2023-04-03T03:15:31;6.00;99.90
21031;DHT22;61072;47.808;7.636;2023-04-03T03:17:57;6.00;99.90
21031;DHT22;61072;47.808;7.636;2023-04-03T03:20:24;6.10;99.90
21031;DHT22;61072;47.808;7.636;2023-04-03T03:22:51;6.10;99.90
21031;DHT22;61072;47.808;7.636;2023-04-03T03:25:17;6.20;99.90
21031;DHT22;61072;47.808;7.636;2023-04-03T03:27:44;6.20;99.90
21031;DHT22;61072;47.808;7.636;2023-04-03T03:30:12;6.20;99.90
21031;DHT22;61072;47.808;7.636;2023-04-03T03:32:39;6.10;99.90
21031;DHT22;61072;47.808;7.636;2023-04-03T03:35:06;6.20;99.90
21031;DHT22;61072;47.808;7.636;2023-04-03T03:37:33;6.30;99.90
21031;DHT22;61072;47.808;7.636;2023-04-03T03:40:00;6.30;99.90
21031;DHT22;61072;47.808;7.636;2023-04-03T03:42:26;6.20;99.90
21031;DHT22;61072;47.808;7.636;2023-04-03T03:44:53;6.20;99.90
21031;DHT22;61072;47.808;7.636;2023-04-03T03:47:20;6.10;99.90
21031;DHT22;61072;47.808;7.636;2023-04-03T03:49:46;6.10;99.90
21031;DHT22;61072;47.808;7.636;2023-04-03T03:52:13;6.20;99.90
21031;DHT22;61072;47.808;7.636;2023-04-03T03:54:40;6.10;99.90
21031;DHT22;61072;47.808;7.636;2023-04-03T03:57:06;6.10;99.90
21031;DHT22;61072;47.808;7.636;2023-04-03T03:59:33;6.20;99.90
21031;DHT22;61072;47.808;7.636;2023-04-03T04:02:00;6.20;99.90
21031;DHT22;61072;47.808;7.636;2023-04-03T04:04:27;6.20;99.90
21031;DHT22;61072;47.808;7.636;2023-04-03T04:06:54;6.20;99.90
21031;DHT22;61072;47.808;7.636;2023-04-03T04:09:20;6.20;99.90
21031;DHT22;61072;47.808;7.636;2023-04-03T04:11:48;6.20;99.90
21031;DHT22;61072;47.808;7.636;2023-04-03T04:14:14;6.30;99.90
21031;DHT22;61072;47.808;7.636;2023-04-03T04:16:41;6.30;99.90
21031;DHT22;61072;47.808;7.636;2023-04-03T04:19:08;6.40;99.90
21031;DHT22;61072;47.808;7.636;2023-04-03T04:21:35;6.40;99.90
21031;DHT22;61072;47.808;7.636;2023-04-03T04:24:02;6.50;99.90
21031;DHT22;61072;47.808;7.636;2023-04-03T04:26:29;6.50;99.90
21031;DHT22;61072;47.808;7.636;2023-04-03T04:28:55;6.50;99.90
21031;DHT22;61072;47.808;7.636;2023-04-03T04:31:22;6.50;99.90
21031;DHT22;61072;47.808;7.636;2023-04-03T04:33:49;6.50;99.90
21031;DHT22;61072;47.808;7.636;2023-04-03T04:36:16;6.40;99.90
21031;DHT22;61072;47.808;7.636;2023-04-03T04:38:43;6.40;99.90
21031;DHT22;61072;47.808;7.636;2023-04-03T04:41:10;6.40;99.90
21031;DHT22;61072;47.808;7.636;2023-04-03T04:43:37;6.10;99.90
21031;DHT22;61072;47.808;7.636;2023-04-03T04:46:05;6.00;99.90
21031;DHT22;61072;47.808;7.636;2023-04-03T04:48:33;6.00;99.90
21031;DHT22;61072;47.808;7.636;2023-04-03T04:51:01;6.00;99.90
21031;DHT22;61072;47.808;7.636;2023-04-03T04:53:27;5.90;99.90
21031;DHT22;61072;47.808;7.636;2023-04-03T04:55:54;5.90;99.90
21031;DHT22;61072;47.808;7.636;2023-04-03T04:58:21;5.80;99.90
21031;DHT22;61072;47.808;7.636;2023-04-03T05:00:48;5.80;99.90
21031;DHT22;61072;47.808;7.636;2023-04-03T05:03:15;5.90;99.90
21031;DHT22;61072;47.808;7.636;2023-04-03T05:05:41;5.90;99.90
21031;DHT22;61072;47.808;7.636;2023-04-03T05:08:08;5.90;99.90
21031;DHT22;61072;47.808;7.636;2023-04-03T05:10:35;5.80;99.90
21031;DHT22;61072;47.808;7.636;2023-04-03T05:13:01;5.80;99.90
21031;DHT22;61072;47.808;7.636;2023-04-03T05:15:28;5.80;99.90
21031;DHT22;61072;47.808;7.636;2023-04-03T05:17:55;5.70;99.90
21031;DHT22;61072;47.808;7.636;2023-04-03T05:20:21;5.70;99.90
21031;DHT22;61072;47.808;7.636;2023-04-03T05:22:48;5.70;99.90
21031;DHT22;61072;47.808;7.636;2023-04-03T05:25:15;5.70;99.90
21031;DHT22;61072;47.808;7.636;2023-04-03T05:27:41;5.70;99.90
21031;DHT22;61072;47.808;7.636;2023-04-03T05:30:08;5.60;99.90
21031;DHT22;61072;47.808;7.636;2023-04-03T05:32:35;5.60;99.90
21031;DHT22;61072;47.808;7.636;2023-04-03T05:35:02;5.60;99.90
21031;DHT22;61072;47.808;7.636;2023-04-03T05:37:29;5.70;99.90
21031;DHT22;61072;47.808;7.636;2023-04-03T05:39:56;5.80;99.90
21031;DHT22;61072;47.808;7.636;2023-04-03T05:42:22;5.80;99.90
21031;DHT22;61072;47.808;7.636;2023-04-03T05:44:49;5.80;99.90
21031;DHT22;61072;47.808;7.636;2023-04-03T05:47:17;5.80;99.90
21031;DHT22;61072;47.808;7.636;2023-04-03T05:49:44;5.90;99.90
21031;DHT22;61072;47.808;7.636;2023-04-03T05:54:48;6.10;99.90
21031;DHT22;61072;47.808;7.636;2023-04-03T05:57:16;6.10;99.90
21031;DHT22;61072;47.808;7.636;2023-04-03T05:59:43;6.20;99.90
21031;DHT22;61072;47.808;7.636;2023-04-03T06:02:16;6.20;99.90
21031;DHT22;61072;47.808;7.636;2023-04-03T06:04:43;6.10;99.90
21031;DHT22;61072;47.808;7.636;2023-04-03T06:07:16;6.10;99.90
21031;DHT22;61072;47.808;7.636;2023-04-03T06:09:44;6.10;99.90
21031;DHT22;61072;47.808;7.636;2023-04-03T06:12:10;6.00;99.90
21031;DHT22;61072;47.808;7.636;2023-04-03T06:14:37;6.00;99.90
21031;DHT22;61072;47.808;7.636;2023-04-03T06:17:04;6.10;99.90
21031;DHT22;61072;47.808;7.636;2023-04-03T06:19:31;6.10;99.90
21031;DHT22;61072;47.808;7.636;2023-04-03T06:21:58;6.10;99.90
21031;DHT22;61072;47.808;7.636;2023-04-03T06:24:25;6.20;99.90
21031;DHT22;61072;47.808;7.636;2023-04-03T06:26:52;6.20;99.90
21031;DHT22;61072;47.808;7.636;2023-04-03T06:29:19;6.20;99.90
21031;DHT22;61072;47.808;7.636;2023-04-03T06:31:47;6.30;99.90
21031;DHT22;61072;47.808;7.636;2023-04-03T06:34:13;6.20;99.90
21031;DHT22;61072;47.808;7.636;2023-04-03T06:36:40;6.20;99.90
21031;DHT22;61072;47.808;7.636;2023-04-03T06:39:11;6.10;99.90
21031;DHT22;61072;47.808;7.636;2023-04-03T06:41:39;6.10;99.90
21031;DHT22;61072;47.808;7.636;2023-04-03T06:44:06;6.10;99.90
21031;DHT22;61072;47.808;7.636;2023-04-03T06:46:32;6.20;99.90
21031;DHT22;61072;47.808;7.636;2023-04-03T06:48:59;6.20;99.90
21031;DHT22;61072;47.808;7.636;2023-04-03T06:51:28;6.10;99.90
21031;DHT22;61072;47.808;7.636;2023-04-03T06:53:57;6.00;99.90
21031;DHT22;61072;47.808;7.636;2023-04-03T06:56:25;6.20;99.90
21031;DHT22;61072;47.808;7.636;2023-04-03T06:58:53;6.20;99.90
21031;DHT22;61072;47.808;7.636;2023-04-03T07:01:21;6.10;99.90
21031;DHT22;61072;47.808;7.636;2023-04-03T07:03:48;6.00;99.90
21031;DHT22;61072;47.808;7.636;2023-04-03T07:06:16;6.10;99.90
21031;DHT22;61072;47.808;7.636;2023-04-03T07:08:43;6.10;99.90
21031;DHT22;61072;47.808;7.636;2023-04-03T07:11:11;6.20;99.90
21031;DHT22;61072;47.808;7.636;2023-04-03T07:13:38;6.30;99.90
21031;DHT22;61072;47.808;7.636;2023-04-03T07:16:06;6.40;99.90
21031;DHT22;61072;47.808;7.636;2023-04-03T07:18:33;6.40;99.90
21031;DHT22;61072;47.808;7.636;2023-04-03T07:21:00;6.40;99.90
21031;DHT22;61072;47.808;7.636;2023-04-03T07:23:27;6.50;99.90
21031;DHT22;61072;47.808;7.636;2023-04-03T07:25:54;6.50;99.90
21031;DHT22;61072;47.808;7.636;2023-04-03T07:28:21;6.60;99.90
21031;DHT22;61072;47.808;7.636;2023-04-03T07:30:54;6.60;99.90
21031;DHT22;61072;47.808;7.636;2023-04-03T07:33:25;6.60;99.90
21031;DHT22;61072;47.808;7.636;2023-04-03T07:35:52;6.60;99.90
21031;DHT22;61072;47.808;7.636;2023-04-03T07:38:18;6.70;99.90
21031;DHT22;61072;47.808;7.636;2023-04-03T07:40:50;6.70;99.90
21031;DHT22;61072;47.808;7.636;2023-04-03T07:43:20;6.80;99.90
21031;DHT22;61072;47.808;7.636;2023-04-03T07:45:48;6.70;99.90
21031;DHT22;61072;47.808;7.636;2023-04-03T07:48:20;6.80;99.90
21031;DHT22;61072;47.808;7.636;2023-04-03T07:50:47;6.90;99.90
21031;DHT22;61072;47.808;7.636;2023-04-03T07:53:14;6.90;99.90
21031;DHT22;61072;47.808;7.636;2023-04-03T07:55:41;6.90;99.90
21031;DHT22;61072;47.808;7.636;2023-04-03T07:58:13;7.00;99.90
21031;DHT22;61072;47.808;7.636;2023-04-03T08:00:41;7.00;99.90
21031;DHT22;61072;47.808;7.636;2023-04-03T08:03:10;6.90;99.90
21031;DHT22;61072;47.808;7.636;2023-04-03T08:05:40;6.90;99.90
21031;DHT22;61072;47.808;7.636;2023-04-03T08:08:07;7.00;99.90
21031;DHT22;61072;47.808;7.636;2023-04-03T08:10:35;7.00;99.90
21031;DHT22;61072;47.808;7.636;2023-04-03T08:13:03;7.10;99.90
21031;DHT22;61072;47.808;7.636;2023-04-03T08:15:30;7.30;99.90
21031;DHT22;61072;47.808;7.636;2023-04-03T08:17:57;7.40;99.90
21031;DHT22;61072;47.808;7.636;2023-04-03T08:20:25;7.50;99.90
21031;DHT22;61072;47.808;7.636;2023-04-03T08:22:52;7.60;99.90
21031;DHT22;61072;47.808;7.636;2023-04-03T08:25:18;7.80;99.90
21031;DHT22;61072;47.808;7.636;2023-04-03T08:27:46;8.00;99.90
21031;DHT22;61072;47.808;7.636;2023-04-03T08:30:13;8.20;99.90
21031;DHT22;61072;47.808;7.636;2023-04-03T08:32:40;8.30;99.90
21031;DHT22;61072;47.808;7.636;2023-04-03T08:35:11;8.50;99.90
21031;DHT22;61072;47.808;7.636;2023-04-03T08:37:39;8.70;99.90
21031;DHT22;61072;47.808;7.636;2023-04-03T08:40:13;8.80;99.90
21031;DHT22;61072;47.808;7.636;2023-04-03T08:45:42;9.10;99.90
21031;DHT22;61072;47.808;7.636;2023-04-03T08:48:24;9.30;99.90
21031;DHT22;61072;47.808;7.636;2023-04-03T08:50:56;9.40;99.90
21031;DHT22;61072;47.808;7.636;2023-04-03T08:53:30;9.50;99.90
21031;DHT22;61072;47.808;7.636;2023-04-03T08:56:04;9.60;99.90
21031;DHT22;61072;47.808;7.636;2023-04-03T08:58:48;9.70;99.90
21031;DHT22;61072;47.808;7.636;2023-04-03T09:03:48;9.80;99.90
21031;DHT22;61072;47.808;7.636;2023-04-03T09:12:00;9.80;99.90
21031;DHT22;61072;47.808;7.636;2023-04-03T09:14:39;9.80;99.90
21031;DHT22;61072;47.808;7.636;2023-04-03T09:17:36;9.90;99.90
21031;DHT22;61072;47.808;7.636;2023-04-03T09:22:46;10.10;99.90
21031;DHT22;61072;47.808;7.636;2023-04-03T09:25:47;10.10;99.90
21031;DHT22;61072;47.808;7.636;2023-04-03T09:28:15;10.10;99.90
21031;DHT22;61072;47.808;7.636;2023-04-03T09:30:42;10.20;99.90
21031;DHT22;61072;47.808;7.636;2023-04-03T09:33:09;10.20;99.90
21031;DHT22;61072;47.808;7.636;2023-04-03T09:35:40;10.30;99.90
21031;DHT22;61072;47.808;7.636;2023-04-03T09:38:17;10.30;99.90
21031;DHT22;61072;47.808;7.636;2023-04-03T09:41:14;9.90;99.90
21031;DHT22;61072;47.808;7.636;2023-04-03T09:43:38;9.70;99.90
21031;DHT22;61072;47.808;7.636;2023-04-03T09:48:52;9.20;99.90
21031;DHT22;61072;47.808;7.636;2023-04-03T09:51:34;9.10;99.90
21031;DHT22;61072;47.808;7.636;2023-04-03T09:54:34;9.10;99.90
21031;DHT22;61072;47.808;7.636;2023-04-03T09:57:12;9.10;99.90
21031;DHT22;61072;47.808;7.636;2023-04-03T09:59:46;9.00;99.90
21031;DHT22;61072;47.808;7.636;2023-04-03T10:02:40;8.90;99.90
21031;DHT22;61072;47.808;7.636;2023-04-03T10:05:36;9.00;99.90
21031;DHT22;61072;47.808;7.636;2023-04-03T10:10:37;9.00;99.90
21031;DHT22;61072;47.808;7.636;2023-04-03T10:13:12;9.10;99.90
21031;DHT22;61072;47.808;7.636;2023-04-03T10:16:01;9.10;99.90
21031;DHT22;61072;47.808;7.636;2023-04-03T10:18:46;9.00;99.90
21031;DHT22;61072;47.808;7.636;2023-04-03T10:21:40;9.00;99.90
21031;DHT22;61072;47.808;7.636;2023-04-03T10:34:44;8.50;99.90
21031;DHT22;61072;47.808;7.636;2023-04-03T10:37:38;8.60;99.90
21031;DHT22;61072;47.808;7.636;2023-04-03T10:40:47;8.70;99.90
21031;DHT22;61072;47.808;7.636;2023-04-03T10:46:37;9.00;99.90
21031;DHT22;61072;47.808;7.636;2023-04-03T10:49:17;9.20;99.90
21031;DHT22;61072;47.808;7.636;2023-04-03T10:51:52;9.30;99.90
21031;DHT22;61072;47.808;7.636;2023-04-03T10:54:28;9.40;99.90
21031;DHT22;61072;47.808;7.636;2023-04-03T10:57:01;9.30;99.90
21031;DHT22;61072;47.808;7.636;2023-04-03T10:59:45;9.50;99.90
21031;DHT22;61072;47.808;7.636;2023-04-03T11:02:26;9.40;99.90
21031;DHT22;61072;47.808;7.636;2023-04-03T11:05:47;9.40;99.90
21031;DHT22;61072;47.808;7.636;2023-04-03T11:07:47;9.40;99.90
21031;DHT22;61072;47.808;7.636;2023-04-03T11:10:25;9.50;99.90
21031;DHT22;61072;47.808;7.636;2023-04-03T11:13:06;9.50;99.90
21031;DHT22;61072;47.808;7.636;2023-04-03T11:15:35;9.50;99.90
21031;DHT22;61072;47.808;7.636;2023-04-03T11:18:06;9.50;99.90
21031;DHT22;61072;47.808;7.636;2023-04-03T11:20:37;9.60;99.90
21031;DHT22;61072;47.808;7.636;2023-04-03T11:23:26;9.80;99.90
21031;DHT22;61072;47.808;7.636;2023-04-03T11:26:12;10.00;99.90
21031;DHT22;61072;47.808;7.636;2023-04-03T11:28:39;10.30;99.90
21031;DHT22;61072;47.808;7.636;2023-04-03T11:36:34;10.90;99.90
21031;DHT22;61072;47.808;7.636;2023-04-03T11:39:28;11.00;99.90
21031;DHT22;61072;47.808;7.636;2023-04-03T11:44:40;11.30;99.90
21031;DHT22;61072;47.808;7.636;2023-04-03T11:47:11;11.20;99.90
21031;DHT22;61072;47.808;7.636;2023-04-03T11:58:04;11.10;99.90
21031;DHT22;61072;47.808;7.636;2023-04-03T12:08:29;10.20;99.90
21031;DHT22;61072;47.808;7.636;2023-04-03T12:13:37;9.90;99.90
21031;DHT22;61072;47.808;7.636;2023-04-03T12:16:06;9.70;99.90
21031;DHT22;61072;47.808;7.636;2023-04-03T12:18:43;9.60;99.90
21031;DHT22;61072;47.808;7.636;2023-04-03T12:21:12;9.70;99.90
21031;DHT22;61072;47.808;7.636;2023-04-03T12:29:24;9.30;99.90
21031;DHT22;61072;47.808;7.636;2023-04-03T12:31:58;9.30;99.90
21031;DHT22;61072;47.808;7.636;2023-04-03T12:37:35;9.00;99.90
21031;DHT22;61072;47.808;7.636;2023-04-03T12:47:35;9.10;99.90
21031;DHT22;61072;47.808;7.636;2023-04-03T12:50:16;9.10;99.90
21031;DHT22;61072;47.808;7.636;2023-04-03T12:52:56;9.20;99.90
21031;DHT22;61072;47.808;7.636;2023-04-03T12:55:22;9.20;99.90
21031;DHT22;61072;47.808;7.636;2023-04-03T12:57:49;9.20;99.90
21031;DHT22;61072;47.808;7.636;2023-04-03T13:00:28;9.10;99.90
21031;DHT22;61072;47.808;7.636;2023-04-03T13:02:55;9.20;99.90
21031;DHT22;61072;47.808;7.636;2023-04-03T13:05:23;9.40;99.90
21031;DHT22;61072;47.808;7.636;2023-04-03T13:07:58;9.40;99.90
21031;DHT22;61072;47.808;7.636;2023-04-03T13:10:25;9.40;99.90
21031;DHT22;61072;47.808;7.636;2023-04-03T13:12:58;9.40;99.90
21031;DHT22;61072;47.808;7.636;2023-04-03T13:15:30;9.30;99.90
21031;DHT22;61072;47.808;7.636;2023-04-03T13:18:20;9.20;99.90
21031;DHT22;61072;47.808;7.636;2023-04-03T13:20:48;9.30;99.90
21031;DHT22;61072;47.808;7.636;2023-04-03T13:23:17;9.40;99.90
21031;DHT22;61072;47.808;7.636;2023-04-03T13:25:47;9.50;99.90
21031;DHT22;61072;47.808;7.636;2023-04-03T13:28:24;9.60;99.90
21031;DHT22;61072;47.808;7.636;2023-04-03T13:31:08;9.60;99.90
21031;DHT22;61072;47.808;7.636;2023-04-03T13:41:53;9.50;99.90
21031;DHT22;61072;47.808;7.636;2023-04-03T13:46:55;9.60;99.90
21031;DHT22;61072;47.808;7.636;2023-04-03T13:51:57;9.50;99.90
21031;DHT22;61072;47.808;7.636;2023-04-03T13:54:37;9.30;99.90
21031;DHT22;61072;47.808;7.636;2023-04-03T13:57:13;9.30;99.90
21031;DHT22;61072;47.808;7.636;2023-04-03T13:59:40;9.20;99.90
21031;DHT22;61072;47.808;7.636;2023-04-03T14:02:17;9.20;99.90
21031;DHT22;61072;47.808;7.636;2023-04-03T14:04:46;9.30;99.90
21031;DHT22;61072;47.808;7.636;2023-04-03T14:07:16;9.30;99.90
21031;DHT22;61072;47.808;7.636;2023-04-03T14:09:43;9.40;99.90
21031;DHT22;61072;47.808;7.636;2023-04-03T14:12:32;9.30;99.90
21031;DHT22;61072;47.808;7.636;2023-04-03T14:15:02;9.30;99.90
21031;DHT22;61072;47.808;7.636;2023-04-03T14:17:29;9.30;99.90
21031;DHT22;61072;47.808;7.636;2023-04-03T14:19:57;9.20;99.90
21031;DHT22;61072;47.808;7.636;2023-04-03T14:22:27;9.10;99.90
21031;DHT22;61072;47.808;7.636;2023-04-03T14:24:55;9.10;99.90
21031;DHT22;61072;47.808;7.636;2023-04-03T14:27:26;9.20;99.90
21031;DHT22;61072;47.808;7.636;2023-04-03T14:29:54;9.20;99.90
21031;DHT22;61072;47.808;7.636;2023-04-03T14:32:23;9.10;99.90
21031;DHT22;61072;47.808;7.636;2023-04-03T14:34:51;9.10;99.90
21031;DHT22;61072;47.808;7.636;2023-04-03T14:37:24;9.00;99.90
21031;DHT22;61072;47.808;7.636;2023-04-03T14:39:51;9.00;99.90
21031;DHT22;61072;47.808;7.636;2023-04-03T14:42:23;9.00;99.90
21031;DHT22;61072;47.808;7.636;2023-04-03T14:44:51;9.00;99.90
21031;DHT22;61072;47.808;7.636;2023-04-03T14:47:24;8.90;99.90
21031;DHT22;61072;47.808;7.636;2023-04-03T14:50:00;8.90;99.90
21031;DHT22;61072;47.808;7.636;2023-04-03T14:52:30;8.90;99.90
21031;DHT22;61072;47.808;7.636;2023-04-03T14:54:57;8.80;99.90
21031;DHT22;61072;47.808;7.636;2023-04-03T14:57:25;8.80;99.90
21031;DHT22;61072;47.808;7.636;2023-04-03T14:59:53;8.80;99.90
21031;DHT22;61072;47.808;7.636;2023-04-03T15:04:56;8.80;99.90
21031;DHT22;61072;47.808;7.636;2023-04-03T15:07:26;8.60;99.90
21031;DHT22;61072;47.808;7.636;2023-04-03T15:09:54;8.60;99.90
21031;DHT22;61072;47.808;7.636;2023-04-03T15:12:24;8.70;99.90
21031;DHT22;61072;47.808;7.636;2023-04-03T15:14:51;8.70;99.90
21031;DHT22;61072;47.808;7.636;2023-04-03T15:17:27;8.60;99.90
21031;DHT22;61072;47.808;7.636;2023-04-03T15:19:54;8.60;99.90
21031;DHT22;61072;47.808;7.636;2023-04-03T15:22:21;8.50;99.90
21031;DHT22;61072;47.808;7.636;2023-04-03T15:24:47;8.50;99.90
21031;DHT22;61072;47.808;7.636;2023-04-03T15:27:14;8.50;99.90
21031;DHT22;61072;47.808;7.636;2023-04-03T15:29:43;8.40;99.90
21031;DHT22;61072;47.808;7.636;2023-04-03T15:32:11;8.40;99.90
21031;DHT22;61072;47.808;7.636;2023-04-03T15:34:39;8.30;99.90
21031;DHT22;61072;47.808;7.636;2023-04-03T15:37:06;8.30;99.90
21031;DHT22;61072;47.808;7.636;2023-04-03T15:39:32;8.40;99.90
21031;DHT22;61072;47.808;7.636;2023-04-03T15:41:59;8.40;99.90
21031;DHT22;61072;47.808;7.636;2023-04-03T15:44:35;8.40;99.90
21031;DHT22;61072;47.808;7.636;2023-04-03T15:47:02;8.40;99.90
21031;DHT22;61072;47.808;7.636;2023-04-03T15:49:29;8.40;99.90
21031;DHT22;61072;47.808;7.636;2023-04-03T15:51:57;8.40;99.90
21031;DHT22;61072;47.808;7.636;2023-04-03T15:54:24;8.40;99.90
21031;DHT22;61072;47.808;7.636;2023-04-03T15:56:53;8.40;99.90
21031;DHT22;61072;47.808;7.636;2023-04-03T15:59:20;8.40;99.90
21031;DHT22;61072;47.808;7.636;2023-04-03T16:01:47;8.50;99.90
21031;DHT22;61072;47.808;7.636;2023-04-03T16:04:14;8.40;99.90
21031;DHT22;61072;47.808;7.636;2023-04-03T16:06:43;8.40;99.90
21031;DHT22;61072;47.808;7.636;2023-04-03T16:09:10;8.40;99.90
21031;DHT22;61072;47.808;7.636;2023-04-03T16:11:37;8.30;99.90
21031;DHT22;61072;47.808;7.636;2023-04-03T16:14:07;8.30;99.90
21031;DHT22;61072;47.808;7.636;2023-04-03T16:16:35;8.30;99.90
21031;DHT22;61072;47.808;7.636;2023-04-03T16:19:02;8.20;99.90
21031;DHT22;61072;47.808;7.636;2023-04-03T16:21:29;8.20;99.90
21031;DHT22;61072;47.808;7.636;2023-04-03T16:23:57;8.20;99.90
21031;DHT22;61072;47.808;7.636;2023-04-03T16:26:24;8.10;99.90
21031;DHT22;61072;47.808;7.636;2023-04-03T16:28:52;8.10;99.90
21031;DHT22;61072;47.808;7.636;2023-04-03T16:31:19;8.10;99.90
21031;DHT22;61072;47.808;7.636;2023-04-03T16:33:47;8.20;99.90
21031;DHT22;61072;47.808;7.636;2023-04-03T16:36:13;8.20;99.90
21031;DHT22;61072;47.808;7.636;2023-04-03T16:38:40;8.20;99.90
21031;DHT22;61072;47.808;7.636;2023-04-03T16:41:07;8.20;99.90
21031;DHT22;61072;47.808;7.636;2023-04-03T16:43:34;8.10;99.90
21031;DHT22;61072;47.808;7.636;2023-04-03T16:46:02;8.10;99.90
21031;DHT22;61072;47.808;7.636;2023-04-03T16:48:29;8.00;99.90
21031;DHT22;61072;47.808;7.636;2023-04-03T16:50:56;8.00;99.90
21031;DHT22;61072;47.808;7.636;2023-04-03T16:53:24;8.00;99.90
21031;DHT22;61072;47.808;7.636;2023-04-03T16:55:51;8.00;99.90
21031;DHT22;61072;47.808;7.636;2023-04-03T16:58:18;8.00;99.90
21031;DHT22;61072;47.808;7.636;2023-04-03T17:00:48;7.90;99.90
21031;DHT22;61072;47.808;7.636;2023-04-03T17:03:15;7.90;99.90
21031;DHT22;61072;47.808;7.636;2023-04-03T17:05:42;7.90;99.90
21031;DHT22;61072;47.808;7.636;2023-04-03T17:08:10;7.90;99.90
21031;DHT22;61072;47.808;7.636;2023-04-03T17:10:37;7.90;99.90
21031;DHT22;61072;47.808;7.636;2023-04-03T17:13:03;8.00;99.90
21031;DHT22;61072;47.808;7.636;2023-04-03T17:15:30;7.90;99.90
21031;DHT22;61072;47.808;7.636;2023-04-03T17:17:57;7.90;99.90
21031;DHT22;61072;47.808;7.636;2023-04-03T17:20:23;7.90;99.90
21031;DHT22;61072;47.808;7.636;2023-04-03T17:22:50;7.80;99.90
21031;DHT22;61072;47.808;7.636;2023-04-03T17:25:17;7.80;99.90
21031;DHT22;61072;47.808;7.636;2023-04-03T17:27:43;7.70;99.90
21031;DHT22;61072;47.808;7.636;2023-04-03T17:30:10;7.70;99.90
21031;DHT22;61072;47.808;7.636;2023-04-03T17:32:37;7.60;99.90
21031;DHT22;61072;47.808;7.636;2023-04-03T17:35:04;7.60;99.90
21031;DHT22;61072;47.808;7.636;2023-04-03T17:37:31;7.60;99.90
21031;DHT22;61072;47.808;7.636;2023-04-03T17:39:58;7.60;99.90
21031;DHT22;61072;47.808;7.636;2023-04-03T17:42:25;7.60;99.90
21031;DHT22;61072;47.808;7.636;2023-04-03T17:44:51;7.60;99.90
21031;DHT22;61072;47.808;7.636;2023-04-03T17:47:18;7.70;99.90